EW8345 Weather Reports


Display with metric or nautical units.
time (UTC)temp
F
wind
direction
speed
MPH
gust
MPH
rain 1hr
in
rain 24hr
in
rain mn
in
humidity
%
barometer
mb
20190223021531 21 332 0.0 3.0 0.00 0.04 0.04 79 1009.1
20190223020120 21 332 0.0 3.0 0.00 0.04 0.04 81 1009.1
20190223014558 21 332 0.0 2.0 0.00 0.04 0.04 83 1009.2
20190223013046 21 332 0.0 3.0 0.00 0.04 0.04 83 1009.1
20190223011536 21 332 0.0 0.0 0.00 0.04 0.04 82 1009.1
20190223010029 22 332 0.0 4.0 0.00 0.04 0.04 84 1008.7
20190223004534 22 332 2.0 6.0 0.00 0.04 0.04 83 1008.7
20190223003105 22 338 0.0 5.0 0.00 0.04 0.04 85 1008.7
20190223001556 22 342 0.0 2.0 0.01 0.04 0.04 87 1008.9
20190223000052 22 342 0.0 4.0 0.01 0.04 0.04 86 1008.7
20190222234625 22 355 0.0 0.0 0.02 0.04 0.04 86 1008.4
20190222233111 22 355 0.0 0.0 0.03 0.04 0.04 86 1008.6
20190222231533 23 355 0.0 0.0 0.03 0.03 0.03 86 1008.4
20190222230044 23 355 0.0 0.0 0.02 0.02 0.02 85 1008.3
20190222224525 23 355 1.0 4.0 0.02 0.02 0.02 85 1008.2
20190222223120 23 350 1.0 5.0 0.01 0.01 0.01 85 1008.2
20190222221537 23 343 3.0 8.0 0.00 0.00 0.00 85 1008.1
20190222220044 24 313 5.0 12.0 0.00 0.00 0.00 81 1007.9
20190222214607 25 306 3.0 6.0 0.00 0.00 0.00 80 1007.8
20190222213028 25 200 2.0 9.0 0.00 0.00 0.00 79 1007.7
20190222211516 26 173 7.0 10.0 0.00 0.00 0.00 72 1007.6
20190222210028 26 177 12.0 20.0 0.00 0.00 0.00 67 1007.5
20190222204513 26 164 9.0 18.0 0.00 0.00 0.00 68 1007.4
20190222203056 27 171 11.0 18.0 0.00 0.00 0.00 62 1007.4
20190222201512 28 193 13.0 21.0 0.00 0.00 0.00 57 1007.4
20190222200028 28 188 9.0 17.0 0.00 0.00 0.00 58 1007.6
20190222194522 29 175 9.0 17.0 0.00 0.00 0.00 58 1007.8
20190222193005 28 162 11.0 17.0 0.00 0.00 0.00 59 1008.0
20190222191711 27 138 9.0 16.0 0.00 0.00 0.00 64 1008.3
20190222190249 27 177 13.0 22.0 0.00 0.00 0.00 60 1008.4
20190222184651 27 163 10.0 16.0 0.00 0.00 0.00 59 1008.6
20190222183211 27 167 14.0 22.0 0.00 0.00 0.00 56 1008.6
20190222181819 29 158 12.0 22.0 0.00 0.00 0.00 49 1008.5
20190222180139 29 128 9.0 21.0 0.00 0.00 0.00 49 1008.4
20190222174643 29 140 14.0 21.0 0.00 0.00 0.00 48 1008.5
20190222173153 28 136 11.0 23.0 0.00 0.00 0.00 51 1008.4
20190222171831 27 188 12.0 21.0 0.00 0.00 0.00 53 1008.6
20190222170118 26 132 11.0 18.0 0.00 0.00 0.00 57 1008.6
20190222164620 25 178 13.0 16.0 0.00 0.00 0.00 58 1008.7
20190222163141 24 153 12.0 19.0 0.00 0.00 0.00 58 1008.8
20190222161630 23 164 9.0 20.0 0.00 0.00 0.00 61 1008.9
20190222160058 23 144 11.0 17.0 0.00 0.00 0.00 62 1009.0
20190222154633 23 149 10.0 20.0 0.00 0.00 0.00 58 1009.1
20190222153055 23 185 12.0 21.0 0.00 0.00 0.00 57 1008.9
20190222151552 21 164 9.0 17.0 0.00 0.00 0.00 58 1008.9
20190222150111 20 179 9.0 14.0 0.00 0.00 0.00 61 1008.8
20190222144537 19 176 9.0 13.0 0.00 0.00 0.00 65 1008.8
20190222143033 18 190 11.0 19.0 0.00 0.00 0.00 68 1008.8
20190222141536 18 172 12.0 20.0 0.00 0.00 0.00 66 1008.8
20190222140028 18 153 11.0 16.0 0.00 0.00 0.00 65 1008.7
20190222134526 17 170 6.0 12.0 0.00 0.00 0.00 64 1008.6
20190222133022 18 170 5.0 11.0 0.00 0.00 0.00 64 1008.5
20190222131519 18 160 9.0 16.0 0.00 0.00 0.00 65 1008.6
20190222130020 18 194 10.0 16.0 0.00 0.00 0.00 66 1008.6
20190222124556 18 165 10.0 15.0 0.00 0.00 0.00 66 1008.7
20190222123017 18 168 12.0 19.0 0.00 0.00 0.00 64 1008.8
20190222121516 18 209 12.0 25.0 0.00 0.00 0.00 65 1008.7
20190222120010 18 217 12.0 18.0 0.00 0.00 0.00 68 1008.6
20190222114513 17 181 10.0 15.0 0.00 0.00 0.00 70 1008.6
20190222113017 18 167 11.0 18.0 0.00 0.00 0.00 71 1008.6
20190222111514 18 146 6.0 16.0 0.00 0.00 0.00 68 1008.5
20190222110015 18 175 9.0 14.0 0.00 0.00 0.00 68 1008.6
20190222104518 18 168 10.0 15.0 0.00 0.00 0.00 69 1008.6
20190222103012 18 168 11.0 16.0 0.00 0.00 0.00 70 1008.7
20190222101504 18 135 10.0 15.0 0.00 0.00 0.00 71 1008.8
20190222100306 18 166 9.0 16.0 0.00 0.00 0.00 69 1008.9
20190222094709 18 173 10.0 21.0 0.00 0.00 0.00 71 1008.9
20190222093130 18 178 13.0 21.0 0.00 0.00 0.00 71 1009.0
20190222091657 18 169 11.0 22.0 0.00 0.00 0.00 72 1008.9
20190222090123 18 176 13.0 22.0 0.00 0.00 0.00 70 1008.8
20190222084659 18 171 11.0 18.0 0.00 0.00 0.00 73 1008.7
20190222083117 18 173 10.0 20.0 0.00 0.00 0.00 74 1008.7
20190222081608 18 195 10.0 19.0 0.00 0.00 0.00 73 1008.7
20190222080206 18 209 10.0 23.0 0.00 0.00 0.00 74 1008.6
20190222074635 18 192 12.0 20.0 0.00 0.00 0.00 74 1008.6
20190222073132 18 184 10.0 15.0 0.00 0.00 0.00 75 1008.7
20190222071622 18 159 10.0 18.0 0.00 0.00 0.00 75 1008.8
20190222070123 17 177 8.0 15.0 0.00 0.00 0.00 74 1008.8
20190222064555 17 182 8.0 16.0 0.00 0.00 0.00 76 1009.0
20190222063125 17 186 8.0 19.0 0.00 0.00 0.00 76 1008.9
20190222061553 17 188 8.0 13.0 0.00 0.00 0.00 76 1009.0
20190222060042 16 192 7.0 13.0 0.00 0.00 0.00 75 1009.1
20190222054529 16 178 5.0 9.0 0.00 0.00 0.00 75 1009.1
20190222053023 16 207 7.0 14.0 0.00 0.00 0.00 78 1009.2
20190222051511 16 199 8.0 13.0 0.00 0.00 0.00 77 1009.3
20190222050009 17 191 7.0 16.0 0.00 0.00 0.00 77 1009.3
20190222044718 17 180 6.0 14.0 0.00 0.00 0.00 76 1009.4
20190222043236 16 173 5.0 7.0 0.00 0.00 0.00 73 1009.4
20190222041706 16 155 2.0 8.0 0.00 0.00 0.00 73 1009.4
20190222040118 17 190 4.0 6.0 0.00 0.00 0.00 72 1009.4
20190222034609 17 165 3.0 12.0 0.00 0.00 0.00 71 1009.3
20190222033204 18 170 10.0 16.0 0.00 0.00 0.00 70 1009.2
20190222031617 18 166 13.0 21.0 0.00 0.00 0.00 68 1009.1
20190222030119 18 156 12.0 17.0 0.00 0.00 0.00 65 1009.0
20190222024535 18 117 8.0 16.0 0.00 0.00 0.00 64 1008.9
20190222023032 18 167 9.0 18.0 0.00 0.00 0.00 65 1008.8